createdAt,value
2016-11-10T00:00:20.009Z,0
2016-11-10T00:01:19.976Z,0
2016-11-10T00:02:20.165Z,0
2016-11-10T00:03:20.041Z,0
2016-11-10T00:04:20.006Z,0
2016-11-10T00:05:20.255Z,0
2016-11-10T00:06:20.328Z,0
2016-11-10T00:07:20.043Z,0
2016-11-10T00:08:20.098Z,0
2016-11-10T00:09:20.568Z,0
2016-11-10T00:10:20.115Z,0
2016-11-10T00:11:20.120Z,0
2016-11-10T00:12:20.024Z,0
2016-11-10T00:13:20.144Z,0
2016-11-10T00:14:20.331Z,0
2016-11-10T00:15:19.956Z,0
2016-11-10T00:16:20.073Z,0
2016-11-10T00:17:20.073Z,0
2016-11-10T00:18:20.204Z,0
2016-11-10T00:19:20.044Z,0
2016-11-10T00:20:20.143Z,0
2016-11-10T00:21:20.012Z,0
2016-11-10T00:22:20.072Z,0
2016-11-10T00:23:21.019Z,0
2016-11-10T00:24:20.032Z,0
2016-11-10T00:25:20.153Z,0
2016-11-10T00:26:20.049Z,0
2016-11-10T00:27:20.012Z,0
2016-11-10T00:28:20.570Z,0
2016-11-10T00:29:20.110Z,0
2016-11-10T00:30:20.171Z,0
2016-11-10T00:31:20.126Z,0
2016-11-10T00:32:20.148Z,0
2016-11-10T00:33:20.181Z,0
2016-11-10T00:34:20.029Z,0
2016-11-10T00:35:20.092Z,0
2016-11-10T00:36:20.450Z,0
2016-11-10T00:37:20.117Z,0
2016-11-10T00:38:20.070Z,0
2016-11-10T00:39:20.134Z,0
2016-11-10T00:40:20.064Z,0
2016-11-10T00:41:20.075Z,0
2016-11-10T00:42:20.052Z,0
2016-11-10T00:43:20.084Z,0
2016-11-10T00:44:20.952Z,0
2016-11-10T00:45:20.660Z,0
2016-11-10T00:46:20.074Z,0
2016-11-10T00:47:20.200Z,0
2016-11-10T00:48:20.048Z,0
2016-11-10T00:49:20.022Z,0
2016-11-10T00:50:20.053Z,0
2016-11-10T00:51:20.007Z,0
2016-11-10T00:52:20.017Z,0
2016-11-10T00:53:20.174Z,0
2016-11-10T00:54:20.100Z,0
2016-11-10T00:55:20.128Z,0
2016-11-10T00:56:20.046Z,0
2016-11-10T00:57:20.284Z,0
2016-11-10T00:58:20.169Z,0
2016-11-10T00:59:19.997Z,0
2016-11-10T01:00:19.996Z,0
2016-11-10T01:01:20.231Z,0
2016-11-10T01:02:20.047Z,0
2016-11-10T01:03:20.015Z,0
2016-11-10T01:04:20.129Z,0
2016-11-10T01:05:20.172Z,0
2016-11-10T01:06:20.006Z,0
2016-11-10T01:07:19.996Z,0
2016-11-10T01:08:20.241Z,0
2016-11-10T01:09:20.051Z,0
2016-11-10T01:10:20.758Z,0
2016-11-10T01:11:19.999Z,0
2016-11-10T01:12:20.015Z,0
2016-11-10T01:13:20.410Z,0
2016-11-10T01:14:20.141Z,0
2016-11-10T01:15:20.028Z,0
2016-11-10T01:16:20.038Z,0
2016-11-10T01:17:20.092Z,0
2016-11-10T01:18:20.153Z,0
2016-11-10T01:19:20.012Z,0
2016-11-10T01:20:20.019Z,0
2016-11-10T01:21:19.994Z,0
2016-11-10T01:22:20.015Z,0
2016-11-10T01:23:20.142Z,0
2016-11-10T01:24:20.057Z,0
2016-11-10T01:25:20.116Z,0
2016-11-10T01:26:20.020Z,0
2016-11-10T01:27:20.092Z,0
2016-11-10T01:28:20.034Z,0
2016-11-10T01:29:20.050Z,0
2016-11-10T01:30:20.077Z,0
2016-11-10T01:31:20.073Z,0
2016-11-10T01:32:20.174Z,0
2016-11-10T01:33:20.041Z,0
2016-11-10T01:34:20.402Z,0
2016-11-10T01:35:20.051Z,0
2016-11-10T01:36:20.067Z,0
2016-11-10T01:37:20.047Z,0
2016-11-10T01:38:20.205Z,0
2016-11-10T01:39:19.996Z,0
2016-11-10T01:40:20.287Z,0
2016-11-10T01:41:20.381Z,0
2016-11-10T01:42:20.057Z,0
2016-11-10T01:43:20.092Z,0
2016-11-10T01:44:20.427Z,0
2016-11-10T01:45:20.060Z,0
2016-11-10T01:46:20.033Z,0
2016-11-10T01:47:20.225Z,0
2016-11-10T01:48:20.129Z,0
2016-11-10T01:49:20.033Z,0
2016-11-10T01:50:20.073Z,0
2016-11-10T01:51:20.039Z,0
2016-11-10T01:52:20.149Z,0
2016-11-10T01:53:20.044Z,0
2016-11-10T01:54:20.068Z,0
2016-11-10T01:55:20.044Z,0
2016-11-10T01:56:20.323Z,0
2016-11-10T01:57:20.173Z,0
2016-11-10T01:58:20.089Z,0
2016-11-10T01:59:20.314Z,0
2016-11-10T02:00:20.209Z,0
2016-11-10T02:01:20.069Z,0
2016-11-10T02:02:20.320Z,0
2016-11-10T02:03:20.128Z,0
2016-11-10T02:04:20.378Z,0
2016-11-10T02:05:20.307Z,0
2016-11-10T02:06:20.057Z,0
2016-11-10T02:07:20.038Z,0
2016-11-10T02:08:20.057Z,0
2016-11-10T02:09:20.146Z,0
2016-11-10T02:10:20.150Z,0
2016-11-10T02:11:20.087Z,0
2016-11-10T02:12:20.400Z,0
2016-11-10T02:13:20.174Z,0
2016-11-10T02:14:20.063Z,0
2016-11-10T02:15:20.084Z,0
2016-11-10T02:16:20.239Z,0
2016-11-10T02:17:20.067Z,0
2016-11-10T02:18:20.066Z,0
2016-11-10T02:19:20.064Z,0
2016-11-10T02:20:20.229Z,0
2016-11-10T02:21:20.066Z,0
2016-11-10T02:22:20.179Z,0
2016-11-10T02:23:20.489Z,0
2016-11-10T02:24:20.079Z,0
2016-11-10T02:25:20.218Z,0
2016-11-10T02:26:20.578Z,0
2016-11-10T02:27:20.375Z,0
2016-11-10T02:28:20.103Z,0
2016-11-10T02:29:20.117Z,0
2016-11-10T02:30:21.356Z,0
2016-11-10T02:31:20.326Z,0
2016-11-10T02:32:20.444Z,0
2016-11-10T02:33:20.186Z,0
2016-11-10T02:34:20.102Z,0
2016-11-10T02:35:20.242Z,0
2016-11-10T02:36:20.223Z,0
2016-11-10T02:37:20.053Z,0
2016-11-10T02:38:20.071Z,0
2016-11-10T02:39:20.064Z,0
2016-11-10T02:40:20.802Z,0
2016-11-10T02:41:20.268Z,0
2016-11-10T02:42:20.042Z,0
2016-11-10T02:43:21.117Z,0
2016-11-10T02:44:20.072Z,0
2016-11-10T02:45:20.076Z,0
2016-11-10T02:46:20.399Z,0
2016-11-10T02:47:20.304Z,0
2016-11-10T02:48:20.115Z,0
2016-11-10T02:49:20.064Z,0
2016-11-10T02:50:20.303Z,0
2016-11-10T02:51:20.075Z,0
2016-11-10T02:52:20.101Z,0
2016-11-10T02:53:20.402Z,0
2016-11-10T02:54:20.198Z,0
2016-11-10T02:55:20.092Z,0
2016-11-10T02:56:20.305Z,0
2016-11-10T02:57:20.197Z,0
2016-11-10T02:58:21.094Z,0
2016-11-10T02:59:20.387Z,0
2016-11-10T03:00:20.152Z,0
2016-11-10T03:01:20.303Z,0
2016-11-10T03:02:20.266Z,0
2016-11-10T03:03:20.209Z,0
2016-11-10T03:04:20.088Z,0
2016-11-10T03:05:20.460Z,0
2016-11-10T03:06:20.305Z,0
2016-11-10T03:07:20.101Z,0
2016-11-10T03:08:20.098Z,0
2016-11-10T03:09:20.061Z,0
2016-11-10T03:10:20.297Z,0
2016-11-10T03:11:20.099Z,0
2016-11-10T03:12:20.082Z,0
2016-11-10T03:13:20.126Z,0
2016-11-10T03:14:20.112Z,0
2016-11-10T03:15:20.090Z,0
2016-11-10T03:16:20.067Z,0
2016-11-10T03:17:20.130Z,0
2016-11-10T03:18:20.377Z,0
2016-11-10T03:19:20.089Z,0
2016-11-10T03:20:20.066Z,0
2016-11-10T03:21:20.134Z,0
2016-11-10T03:22:21.291Z,0
2016-11-10T03:23:20.129Z,0
2016-11-10T03:24:20.137Z,0
2016-11-10T03:25:20.114Z,0
2016-11-10T03:26:20.135Z,0
2016-11-10T03:27:20.095Z,0
2016-11-10T03:28:20.130Z,0
2016-11-10T03:29:20.346Z,0
2016-11-10T03:30:20.091Z,0
2016-11-10T03:31:20.162Z,0
2016-11-10T03:32:20.114Z,0
2016-11-10T03:33:20.120Z,0
2016-11-10T03:34:20.151Z,0
2016-11-10T03:35:20.098Z,0
2016-11-10T03:36:20.745Z,0
2016-11-10T03:37:20.105Z,0
2016-11-10T03:38:20.111Z,0
2016-11-10T03:39:20.229Z,0
2016-11-10T03:40:20.108Z,0
2016-11-10T03:41:20.194Z,0
2016-11-10T03:42:20.118Z,0
2016-11-10T03:43:20.157Z,0
2016-11-10T03:44:20.417Z,0
2016-11-10T03:45:20.178Z,0
2016-11-10T03:46:20.176Z,0
2016-11-10T03:47:20.125Z,0
2016-11-10T03:48:20.178Z,0
2016-11-10T03:49:20.194Z,0
2016-11-10T03:50:20.160Z,0
2016-11-10T03:51:20.133Z,0
2016-11-10T03:52:20.160Z,0
2016-11-10T03:53:20.368Z,0
2016-11-10T03:54:20.135Z,0
2016-11-10T03:55:20.169Z,0
2016-11-10T03:56:20.143Z,0
2016-11-10T03:57:20.159Z,0
2016-11-10T03:58:20.150Z,0
2016-11-10T03:59:20.223Z,0
2016-11-10T04:00:20.212Z,0
2016-11-10T04:01:20.162Z,0
2016-11-10T04:02:20.484Z,0
2016-11-10T04:03:20.186Z,0
2016-11-10T04:04:20.244Z,0
2016-11-10T04:05:20.435Z,0
2016-11-10T04:06:20.227Z,0
2016-11-10T04:07:20.316Z,0
2016-11-10T04:08:20.599Z,0
2016-11-10T04:09:20.217Z,0
2016-11-10T04:10:20.275Z,0
2016-11-10T04:11:20.159Z,0
2016-11-10T04:12:20.140Z,0
2016-11-10T04:13:20.172Z,0
2016-11-10T04:14:20.503Z,0
2016-11-10T04:15:20.129Z,0
2016-11-10T04:16:20.076Z,0
2016-11-10T04:17:20.229Z,0
2016-11-10T04:18:20.135Z,0
2016-11-10T04:19:20.230Z,0
2016-11-10T04:20:20.793Z,0
2016-11-10T04:21:20.128Z,0
2016-11-10T04:22:20.104Z,0
2016-11-10T04:23:20.409Z,0
2016-11-10T04:24:20.234Z,0
2016-11-10T04:25:20.157Z,0
2016-11-10T04:26:20.190Z,0
2016-11-10T04:27:20.184Z,0
2016-11-10T04:28:20.209Z,0
2016-11-10T04:29:20.142Z,0
2016-11-10T04:30:55.203Z,0
2016-11-10T04:31:20.135Z,0
2016-11-10T04:32:20.131Z,0
2016-11-10T04:33:20.179Z,0
2016-11-10T04:34:20.125Z,0
2016-11-10T04:35:20.229Z,0
2016-11-10T04:36:20.165Z,0
2016-11-10T04:37:20.147Z,0
2016-11-10T04:38:20.163Z,0
2016-11-10T04:39:20.171Z,0
2016-11-10T04:40:20.120Z,0
2016-11-10T04:41:20.500Z,0
2016-11-10T04:42:20.177Z,0
2016-11-10T04:43:20.181Z,0
2016-11-10T04:44:20.148Z,0
2016-11-10T04:45:20.142Z,0
2016-11-10T04:46:20.167Z,0
2016-11-10T04:47:20.156Z,0
2016-11-10T04:48:20.183Z,0
2016-11-10T04:49:20.148Z,0
2016-11-10T04:50:20.145Z,0
2016-11-10T04:51:20.184Z,0
2016-11-10T04:52:20.141Z,0
2016-11-10T04:53:20.324Z,0
2016-11-10T04:54:20.210Z,0
2016-11-10T04:55:20.158Z,0
2016-11-10T04:56:20.804Z,0
2016-11-10T04:57:20.183Z,0
2016-11-10T04:58:20.177Z,0
2016-11-10T04:59:20.461Z,0
2016-11-10T05:00:20.196Z,0
2016-11-10T05:01:20.251Z,0
2016-11-10T05:02:20.359Z,0
2016-11-10T05:03:20.186Z,0
2016-11-10T05:04:20.257Z,0
2016-11-10T05:05:20.314Z,0
2016-11-10T05:06:20.591Z,0
2016-11-10T05:07:20.174Z,0
2016-11-10T05:08:20.190Z,0
2016-11-10T05:09:20.418Z,0
2016-11-10T05:10:20.542Z,0
2016-11-10T05:11:20.371Z,0
2016-11-10T05:12:20.185Z,0
2016-11-10T05:13:21.108Z,0
2016-11-10T05:14:20.492Z,0
2016-11-10T05:15:20.162Z,0
2016-11-10T05:16:20.264Z,0
2016-11-10T05:17:20.504Z,0
2016-11-10T05:18:20.245Z,0
2016-11-10T05:19:20.205Z,0
2016-11-10T05:20:20.155Z,0
2016-11-10T05:21:20.304Z,0
2016-11-10T05:22:20.169Z,0
2016-11-10T05:23:20.251Z,0
2016-11-10T05:24:20.283Z,0
2016-11-10T05:25:20.210Z,0
2016-11-10T05:26:20.169Z,0
2016-11-10T05:27:20.195Z,0
2016-11-10T05:28:20.223Z,0
2016-11-10T05:29:20.303Z,0
2016-11-10T05:30:20.181Z,0
2016-11-10T05:31:20.175Z,0
2016-11-10T05:32:20.259Z,0
2016-11-10T05:33:20.257Z,0
2016-11-10T05:34:20.257Z,0
2016-11-10T05:35:20.360Z,0
2016-11-10T05:36:20.299Z,0
2016-11-10T05:37:20.233Z,0
2016-11-10T05:38:20.213Z,0
2016-11-10T05:39:20.202Z,0
2016-11-10T05:40:20.278Z,0
2016-11-10T05:41:21.519Z,0
2016-11-10T05:42:20.265Z,0
2016-11-10T05:43:20.284Z,0
2016-11-10T05:44:20.268Z,0
2016-11-10T05:45:20.330Z,0
2016-11-10T05:46:20.250Z,0
2016-11-10T05:47:20.242Z,0
2016-11-10T05:48:20.234Z,0
2016-11-10T05:49:21.128Z,0
2016-11-10T05:50:20.227Z,0
2016-11-10T05:51:20.208Z,0
2016-11-10T05:52:20.167Z,0
2016-11-10T05:53:20.263Z,0
2016-11-10T05:54:20.201Z,0
2016-11-10T05:55:20.207Z,0
2016-11-10T05:56:20.236Z,0
2016-11-10T05:57:20.295Z,0
2016-11-10T05:58:20.285Z,0
2016-11-10T05:59:20.266Z,0
2016-11-10T06:00:20.325Z,0
2016-11-10T06:01:20.277Z,0
2016-11-10T06:02:20.262Z,0
2016-11-10T06:03:20.322Z,0
2016-11-10T06:04:20.269Z,0
2016-11-10T06:05:20.279Z,0
2016-11-10T06:06:20.255Z,0
2016-11-10T06:07:20.252Z,0
2016-11-10T06:08:20.290Z,0
2016-11-10T06:09:20.249Z,0
2016-11-10T06:10:20.232Z,0
2016-11-10T06:11:20.186Z,0
2016-11-10T06:12:20.205Z,0
2016-11-10T06:13:20.229Z,4
2016-11-10T06:14:20.241Z,4
2016-11-10T06:15:20.440Z,4
2016-11-10T06:16:20.234Z,0
2016-11-10T06:17:20.276Z,0
2016-11-10T06:18:20.229Z,4
2016-11-10T06:19:20.341Z,4
2016-11-10T06:20:20.237Z,4
2016-11-10T06:21:20.248Z,4
2016-11-10T06:22:20.287Z,8
2016-11-10T06:23:20.272Z,8
2016-11-10T06:24:20.323Z,12
2016-11-10T06:25:20.246Z,12
2016-11-10T06:26:20.276Z,12
2016-11-10T06:27:20.225Z,16
2016-11-10T06:28:20.377Z,16
2016-11-10T06:29:20.291Z,16
2016-11-10T06:30:20.437Z,16
2016-11-10T06:31:20.662Z,20
2016-11-10T06:32:20.215Z,24
2016-11-10T06:33:20.612Z,24
2016-11-10T06:34:20.543Z,28
2016-11-10T06:35:20.482Z,36
2016-11-10T06:36:20.329Z,44
2016-11-10T06:37:20.373Z,48
2016-11-10T06:38:20.401Z,52
2016-11-10T06:39:20.358Z,60
2016-11-10T06:40:20.242Z,60
2016-11-10T06:41:20.303Z,68
2016-11-10T06:42:20.243Z,72
2016-11-10T06:43:20.321Z,80
2016-11-10T06:44:20.264Z,84
2016-11-10T06:45:20.345Z,88
2016-11-10T06:46:20.272Z,100
2016-11-10T06:47:20.227Z,112
2016-11-10T06:48:20.297Z,120
2016-11-10T06:49:20.325Z,128
2016-11-10T06:50:20.251Z,132
2016-11-10T06:51:20.218Z,136
2016-11-10T06:52:20.300Z,140
2016-11-10T06:53:20.340Z,144
2016-11-10T06:54:20.386Z,152
2016-11-10T06:55:20.320Z,168
2016-11-10T06:56:20.330Z,184
2016-11-10T06:57:20.452Z,192
2016-11-10T06:58:20.282Z,200
2016-11-10T06:59:20.537Z,208
2016-11-10T07:00:20.245Z,216
2016-11-10T07:01:20.206Z,232
2016-11-10T07:02:20.262Z,252
2016-11-10T07:03:20.303Z,272
2016-11-10T07:04:20.284Z,292
2016-11-10T07:05:20.262Z,308
2016-11-10T07:06:20.271Z,304
2016-11-10T07:07:20.268Z,284
2016-11-10T07:08:20.274Z,260
2016-11-10T07:09:20.582Z,256
2016-11-10T07:10:20.238Z,292
2016-11-10T07:11:20.259Z,344
2016-11-10T07:12:20.240Z,400
2016-11-10T07:13:20.278Z,440
2016-11-10T07:14:20.265Z,468
2016-11-10T07:15:20.301Z,492
2016-11-10T07:16:20.272Z,504
2016-11-10T07:17:42.564Z,512
2016-11-10T07:18:20.282Z,504
2016-11-10T07:19:20.257Z,488
2016-11-10T07:20:20.252Z,472
2016-11-10T07:21:20.242Z,456
2016-11-10T07:22:20.274Z,440
2016-11-10T07:23:20.266Z,436
2016-11-10T07:24:20.234Z,452
2016-11-10T07:25:20.234Z,472
2016-11-10T07:26:20.295Z,488
2016-11-10T07:27:20.297Z,480
2016-11-10T07:28:20.261Z,436
2016-11-10T07:29:20.297Z,384
2016-11-10T07:30:20.259Z,348
2016-11-10T07:31:20.296Z,340
2016-11-10T07:32:20.230Z,344
2016-11-10T07:33:20.293Z,348
2016-11-10T07:34:20.277Z,340
2016-11-10T07:35:20.304Z,340
2016-11-10T07:36:20.249Z,344
2016-11-10T07:37:20.269Z,360
2016-11-10T07:38:20.275Z,384
2016-11-10T07:39:20.306Z,416
2016-11-10T07:40:20.368Z,444
2016-11-10T07:41:20.263Z,480
2016-11-10T07:42:20.239Z,512
2016-11-10T07:43:20.268Z,548
2016-11-10T07:44:20.320Z,572
2016-11-10T07:45:20.255Z,580
2016-11-10T07:46:20.242Z,580
2016-11-10T07:47:20.284Z,572
2016-11-10T07:48:20.266Z,564
2016-11-10T07:49:20.295Z,556
2016-11-10T07:50:20.247Z,560
2016-11-10T07:51:20.274Z,572
2016-11-10T07:52:20.258Z,596
2016-11-10T07:53:20.288Z,632
2016-11-10T07:54:20.299Z,676
2016-11-10T07:55:20.271Z,708
2016-11-10T07:56:20.275Z,724
2016-11-10T07:57:20.288Z,716
2016-11-10T07:58:20.373Z,704
2016-11-10T07:59:20.258Z,700
2016-11-10T08:00:20.261Z,728
2016-11-10T08:01:20.303Z,772
2016-11-10T08:02:20.304Z,812
2016-11-10T08:03:20.301Z,832
2016-11-10T08:04:21.385Z,840
2016-11-10T08:05:20.283Z,836
2016-11-10T08:06:20.364Z,836
2016-11-10T08:07:20.325Z,852
2016-11-10T08:08:21.039Z,892
2016-11-10T08:09:20.316Z,924
2016-11-10T08:10:21.115Z,944
2016-11-10T08:11:20.355Z,940
2016-11-10T08:12:20.361Z,956
2016-11-10T08:13:20.294Z,988
2016-11-10T08:14:20.288Z,1012
2016-11-10T08:15:20.266Z,1024
2016-11-10T08:16:20.324Z,1028
2016-11-10T08:17:20.331Z,1048
2016-11-10T08:18:20.339Z,1076
2016-11-10T08:19:20.320Z,1128
2016-11-10T08:20:20.317Z,1192
2016-11-10T08:21:20.342Z,1268
2016-11-10T08:22:20.425Z,1356
2016-11-10T08:23:22.079Z,1444
2016-11-10T08:24:20.363Z,1528
2016-11-10T08:25:20.338Z,1628
2016-11-10T08:26:20.336Z,1748
2016-11-10T08:27:20.437Z,1808
2016-11-10T08:28:21.173Z,1824
2016-11-10T08:29:20.384Z,1848
2016-11-10T08:30:20.351Z,1844
2016-11-10T08:31:24.242Z,1844
2016-11-10T08:32:20.328Z,1804
2016-11-10T08:33:20.329Z,1704
2016-11-10T08:34:20.315Z,1608
2016-11-10T08:35:20.337Z,1560
2016-11-10T08:36:20.390Z,1560
2016-11-10T08:37:20.351Z,1644
2016-11-10T08:38:20.389Z,1704
2016-11-10T08:39:20.365Z,1784
2016-11-10T08:40:20.334Z,1872
2016-11-10T08:41:20.305Z,2068
2016-11-10T08:42:20.347Z,2300
2016-11-10T08:43:20.495Z,2492
2016-11-10T08:44:20.296Z,2660
2016-11-10T08:45:20.331Z,2776
2016-11-10T08:46:20.319Z,2836
2016-11-10T08:47:20.302Z,2908
2016-11-10T08:48:20.306Z,3012
2016-11-10T08:49:20.328Z,3140
2016-11-10T08:50:20.324Z,3208
2016-11-10T08:51:20.313Z,3276
2016-11-10T08:52:20.369Z,3272
2016-11-10T08:53:20.334Z,3208
2016-11-10T08:54:20.318Z,3108
2016-11-10T08:55:20.302Z,3128
2016-11-10T08:56:20.322Z,3152
2016-11-10T08:57:20.323Z,3120
2016-11-10T08:58:20.317Z,2968
2016-11-10T08:59:20.337Z,2772
2016-11-10T09:00:20.378Z,2556
2016-11-10T09:01:20.357Z,2236
2016-11-10T09:02:20.395Z,2188
2016-11-10T09:03:20.402Z,2524
2016-11-10T09:04:20.365Z,2788
2016-11-10T09:05:20.396Z,2968
2016-11-10T09:06:20.430Z,3188
2016-11-10T09:07:25.344Z,3276
2016-11-10T09:08:23.556Z,3280
2016-11-10T09:09:20.458Z,3352
2016-11-10T09:10:20.414Z,3444
2016-11-10T09:11:20.402Z,3544
2016-11-10T09:12:20.341Z,3600
2016-11-10T09:13:20.351Z,3544
2016-11-10T09:14:20.737Z,3492
2016-11-10T09:15:20.379Z,3488
2016-11-10T09:16:20.380Z,3512
2016-11-10T09:17:20.317Z,3592
2016-11-10T09:18:20.384Z,3740
2016-11-10T09:19:20.429Z,3908
2016-11-10T09:20:20.416Z,3996
2016-11-10T09:21:20.404Z,4056
2016-11-10T09:22:20.439Z,4104
2016-11-10T09:23:20.432Z,4156
2016-11-10T09:24:20.425Z,4084
2016-11-10T09:25:20.355Z,3996
2016-11-10T09:26:20.362Z,4072
2016-11-10T09:27:20.394Z,4204
2016-11-10T09:28:20.373Z,4284
2016-11-10T09:29:20.406Z,4232
2016-11-10T09:30:20.349Z,4288
2016-11-10T09:31:20.414Z,4548
2016-11-10T09:32:20.999Z,4748
2016-11-10T09:33:21.689Z,4848
2016-11-10T09:34:21.753Z,4856
2016-11-10T09:35:20.551Z,4712
2016-11-10T09:36:20.361Z,4436
2016-11-10T09:37:20.368Z,4096
2016-11-10T09:38:20.495Z,3748
2016-11-10T09:39:20.473Z,3464
2016-11-10T09:40:20.440Z,3252
2016-11-10T09:41:20.391Z,3100
2016-11-10T09:42:20.369Z,2976
2016-11-10T09:43:20.411Z,2888
2016-11-10T09:44:20.384Z,2836
2016-11-10T09:45:20.489Z,2788
2016-11-10T09:46:20.358Z,2740
2016-11-10T09:47:20.379Z,2684
2016-11-10T09:48:20.397Z,2632
2016-11-10T09:49:20.386Z,2584
2016-11-10T09:50:20.367Z,2580
2016-11-10T09:51:20.373Z,2604
2016-11-10T09:52:20.395Z,2620
2016-11-10T09:53:20.376Z,2660
2016-11-10T09:54:20.339Z,2816
2016-11-10T09:55:20.421Z,3072
2016-11-10T09:56:20.436Z,3344
2016-11-10T09:57:20.419Z,3540
2016-11-10T09:58:20.383Z,3664
2016-11-10T09:59:20.405Z,3628
2016-11-10T10:00:20.459Z,3720
2016-11-10T10:01:20.418Z,3656
2016-11-10T10:02:20.377Z,3460
2016-11-10T10:03:20.446Z,3308
2016-11-10T10:04:20.402Z,3236
2016-11-10T10:05:20.370Z,3168
2016-11-10T10:06:20.437Z,2900
2016-11-10T10:07:20.382Z,2784
2016-11-10T10:08:20.386Z,2828
2016-11-10T10:09:20.419Z,2816
2016-11-10T10:10:20.376Z,2912
2016-11-10T10:11:20.392Z,3020
2016-11-10T10:12:20.386Z,3192
2016-11-10T10:13:20.437Z,3256
2016-11-10T10:14:20.385Z,3220
2016-11-10T10:15:20.398Z,3104
2016-11-10T10:16:20.386Z,3012
2016-11-10T10:17:20.453Z,2728
2016-11-10T10:18:20.461Z,2400
2016-11-10T10:19:20.452Z,2356
2016-11-10T10:20:20.443Z,2480
2016-11-10T10:21:20.481Z,2480
2016-11-10T10:22:20.494Z,2548
2016-11-10T10:23:20.513Z,2464
2016-11-10T10:24:20.434Z,2288
2016-11-10T10:25:20.398Z,2168
2016-11-10T10:26:20.417Z,2224
2016-11-10T10:27:20.437Z,2272
2016-11-10T10:28:20.527Z,2232
2016-11-10T10:29:20.449Z,2104
2016-11-10T10:30:20.376Z,1904
2016-11-10T10:31:20.419Z,1844
2016-11-10T10:32:20.436Z,1844
2016-11-10T10:33:20.431Z,1920
2016-11-10T10:34:20.392Z,2084
2016-11-10T10:35:20.463Z,2116
2016-11-10T10:36:20.869Z,2304
2016-11-10T10:37:20.387Z,2548
2016-11-10T10:38:20.494Z,2648
2016-11-10T10:39:20.393Z,2696
2016-11-10T10:40:20.455Z,2656
2016-11-10T10:41:20.532Z,2624
2016-11-10T10:42:20.450Z,2632
2016-11-10T10:43:20.439Z,2772
2016-11-10T10:44:20.449Z,2984
2016-11-10T10:45:20.427Z,3232
2016-11-10T10:46:20.390Z,3604
2016-11-10T10:47:20.384Z,3760
2016-11-10T10:48:20.425Z,3768
2016-11-10T10:49:20.476Z,3684
2016-11-10T10:50:20.415Z,3668
2016-11-10T10:51:20.423Z,3756
2016-11-10T10:52:20.443Z,3924
2016-11-10T10:53:20.407Z,4128
2016-11-10T10:54:20.421Z,4344
2016-11-10T10:55:20.403Z,4448
2016-11-10T10:56:20.386Z,4404
2016-11-10T10:57:20.380Z,4264
2016-11-10T10:58:20.419Z,4080
2016-11-10T10:59:20.405Z,3928
2016-11-10T11:00:20.400Z,3824
2016-11-10T11:01:20.408Z,3672
2016-11-10T11:02:20.427Z,3552
2016-11-10T11:03:20.390Z,3700
2016-11-10T11:04:20.417Z,3844
2016-11-10T11:05:20.424Z,4028
2016-11-10T11:06:20.398Z,4244
2016-11-10T11:07:20.402Z,4348
2016-11-10T11:08:20.433Z,4380
2016-11-10T11:09:20.400Z,4312
2016-11-10T11:10:20.389Z,4256
2016-11-10T11:11:20.465Z,4204
2016-11-10T11:12:20.432Z,4184
2016-11-10T11:13:20.465Z,4136
2016-11-10T11:14:20.432Z,4024
2016-11-10T11:15:20.396Z,3924
2016-11-10T11:16:20.437Z,3852
2016-11-10T11:17:20.405Z,3816
2016-11-10T11:18:20.507Z,3764
2016-11-10T11:19:20.418Z,3608
2016-11-10T11:20:20.526Z,3428
2016-11-10T11:21:20.504Z,3268
2016-11-10T11:22:20.418Z,3196
2016-11-10T11:23:20.455Z,3308
2016-11-10T11:24:20.481Z,3512
2016-11-10T11:25:20.495Z,3864
2016-11-10T11:26:20.475Z,3996
2016-11-10T11:27:20.472Z,4012
2016-11-10T11:28:20.450Z,4004
2016-11-10T11:29:20.443Z,3976
2016-11-10T11:30:20.429Z,3924
2016-11-10T11:31:20.462Z,3920
2016-11-10T11:32:20.452Z,3928
2016-11-10T11:33:20.433Z,3892
2016-11-10T11:34:20.491Z,3916
2016-11-10T11:35:20.448Z,4000
2016-11-10T11:36:20.470Z,4056
2016-11-10T11:37:20.489Z,4056
2016-11-10T11:38:20.521Z,3940
2016-11-10T11:39:20.555Z,3760
2016-11-10T11:40:20.536Z,3584
2016-11-10T11:41:20.460Z,3564
2016-11-10T11:42:20.475Z,3724
2016-11-10T11:43:20.435Z,4024
2016-11-10T11:44:20.636Z,4368
2016-11-10T11:45:21.017Z,4544
2016-11-10T11:46:20.486Z,4416
2016-11-10T11:47:20.513Z,4148
2016-11-10T11:48:20.444Z,3944
2016-11-10T11:49:20.485Z,3812
2016-11-10T11:50:20.447Z,3668
2016-11-10T11:51:20.466Z,3428
2016-11-10T11:52:20.466Z,3200
2016-11-10T11:53:20.565Z,3012
2016-11-10T11:54:20.524Z,2832
2016-11-10T11:55:20.514Z,2688
2016-11-10T11:56:20.482Z,2596
2016-11-10T11:57:20.457Z,2600
2016-11-10T11:58:20.885Z,2664
2016-11-10T11:59:20.481Z,2816
2016-11-10T12:00:20.456Z,3056
2016-11-10T12:01:20.479Z,3360
2016-11-10T12:02:20.470Z,3504
2016-11-10T12:03:20.515Z,3400
2016-11-10T12:04:20.487Z,3236
2016-11-10T12:05:20.485Z,3100
2016-11-10T12:06:20.476Z,3008
2016-11-10T12:07:20.499Z,2980
2016-11-10T12:08:20.490Z,2968
2016-11-10T12:09:20.549Z,2936
2016-11-10T12:10:20.546Z,2900
2016-11-10T12:11:20.509Z,2836
2016-11-10T12:12:20.481Z,2780
2016-11-10T12:13:20.516Z,2740
2016-11-10T12:14:20.508Z,2680
2016-11-10T12:15:20.515Z,2580
2016-11-10T12:16:20.534Z,2468
2016-11-10T12:17:20.503Z,2344
2016-11-10T12:18:20.519Z,2240
2016-11-10T12:19:20.508Z,2204
2016-11-10T12:20:20.505Z,2260
2016-11-10T12:21:20.483Z,2352
2016-11-10T12:22:20.493Z,2372
2016-11-10T12:23:20.481Z,2400
2016-11-10T12:24:20.525Z,2460
2016-11-10T12:25:20.442Z,2548
2016-11-10T12:26:20.490Z,2672
2016-11-10T12:27:20.527Z,2840
2016-11-10T12:28:20.489Z,3004
2016-11-10T12:29:20.476Z,3116
2016-11-10T12:30:20.487Z,3136
2016-11-10T12:31:20.469Z,3012
2016-11-10T12:32:20.530Z,2816
2016-11-10T12:33:21.169Z,2700
2016-11-10T12:34:20.669Z,2716
2016-11-10T12:35:20.534Z,2772
2016-11-10T12:36:20.540Z,2860
2016-11-10T12:37:20.486Z,3016
2016-11-10T12:38:20.550Z,3188
2016-11-10T12:39:20.535Z,3344
2016-11-10T12:40:20.566Z,3456
2016-11-10T12:41:20.595Z,3508
2016-11-10T12:42:20.595Z,3460
2016-11-10T12:43:20.511Z,3360
2016-11-10T12:44:20.542Z,3328
2016-11-10T12:45:20.543Z,3388
2016-11-10T12:46:20.531Z,3384
2016-11-10T12:47:21.100Z,3252
2016-11-10T12:48:20.482Z,3060
2016-11-10T12:49:20.505Z,2920
2016-11-10T12:50:20.479Z,2888
2016-11-10T12:51:20.473Z,2876
2016-11-10T12:52:20.490Z,2844
2016-11-10T12:53:20.499Z,2832
2016-11-10T12:54:20.599Z,2884
2016-11-10T12:55:20.502Z,2888
2016-11-10T12:56:20.564Z,2828
2016-11-10T12:57:20.540Z,2840
2016-11-10T12:58:20.523Z,2968
2016-11-10T12:59:20.611Z,3048
2016-11-10T13:00:20.538Z,3028
2016-11-10T13:01:20.529Z,3008
2016-11-10T13:02:20.566Z,3128
2016-11-10T13:03:20.555Z,3152
2016-11-10T13:04:20.548Z,2908
2016-11-10T13:05:20.505Z,2748
2016-11-10T13:06:20.581Z,2572
2016-11-10T13:07:20.650Z,2248
2016-11-10T13:08:20.543Z,1980
2016-11-10T13:09:20.552Z,1880
2016-11-10T13:10:20.542Z,1868
2016-11-10T13:11:20.573Z,1908
2016-11-10T13:12:20.564Z,1896
2016-11-10T13:13:20.593Z,1872
2016-11-10T13:14:20.613Z,1836
2016-11-10T13:15:20.580Z,1816
2016-11-10T13:16:20.559Z,1808
2016-11-10T13:17:20.643Z,1724
2016-11-10T13:18:20.573Z,1640
2016-11-10T13:19:20.685Z,1576
2016-11-10T13:20:20.586Z,1484
2016-11-10T13:21:20.593Z,1444
2016-11-10T13:22:20.538Z,1456
2016-11-10T13:23:20.547Z,1472
2016-11-10T13:24:20.529Z,1420
2016-11-10T13:25:20.519Z,1352
2016-11-10T13:26:20.570Z,1344
2016-11-10T13:27:20.528Z,1388
2016-11-10T13:28:20.543Z,1464
2016-11-10T13:29:20.576Z,1512
2016-11-10T13:30:23.503Z,1512
2016-11-10T13:31:21.950Z,1368
2016-11-10T13:32:24.107Z,1468
2016-11-10T13:33:22.939Z,1600
2016-11-10T13:34:31.087Z,2056
2016-11-10T13:35:24.146Z,2168
2016-11-10T13:36:26.661Z,2112
2016-11-10T13:37:26.470Z,2008
2016-11-10T13:38:28.285Z,2084
2016-11-10T13:39:20.759Z,2240
2016-11-10T13:40:20.786Z,2348
2016-11-10T13:41:20.692Z,2328
2016-11-10T13:42:20.650Z,2160
2016-11-10T13:43:20.801Z,2160
2016-11-10T13:44:21.133Z,2460
2016-11-10T13:45:20.708Z,2816
2016-11-10T13:46:20.676Z,3040
2016-11-10T13:47:20.689Z,2968
2016-11-10T13:48:20.754Z,2892
2016-11-10T13:49:20.714Z,2940
2016-11-10T13:50:20.660Z,3000
2016-11-10T13:51:20.590Z,3060
2016-11-10T13:52:20.728Z,3200
2016-11-10T13:53:20.578Z,3220
2016-11-10T13:54:20.652Z,3072
2016-11-10T13:55:20.615Z,2884
2016-11-10T13:56:20.535Z,2712
2016-11-10T13:57:20.525Z,2704
2016-11-10T13:58:20.738Z,2820
2016-11-10T13:59:20.644Z,2924
2016-11-10T14:00:20.753Z,2672
2016-11-10T14:01:20.744Z,2356